Time;durP1;ratioP1;P1;durP2;ratioP2;P2;SDS_P1;SDS_P2;PMS_P1;PMS_P2;Temp;Humidity;BMP_temperature;BMP_pressure;BME280_temperature;BME280_humidity;BME280_pressure;Samples;Min_cycle;Max_cycle;Signal;HPM_P1;HPM_P2
2022/10/31 00:02:25;;;;;;;21.65;10.13;;;12.20;99.90;;;;;;5150498;27;20023;-46
2022/10/31 00:04:51;;;;;;;14.93;10.13;;;12.20;99.90;;;;;;5135204;27;20518;-47
2022/10/31 00:07:16;;;;;;;17.63;12.18;;;12.10;99.90;;;;;;5146673;27;20050;-47
2022/10/31 00:09:42;;;;;;;17.95;10.30;;;12.00;99.90;;;;;;5135518;27;20042;-45
2022/10/31 00:12:07;;;;;;;16.10;10.10;;;12.00;99.90;;;;;;5138963;27;20046;-46
2022/10/31 00:14:33;;;;;;;19.65;11.10;;;12.10;99.90;;;;;;5125451;27;20046;-46
2022/10/31 00:16:59;;;;;;;17.60;10.85;;;12.10;99.90;;;;;;5140512;27;20071;-46
2022/10/31 00:19:24;;;;;;;19.40;11.27;;;12.10;99.90;;;;;;5154085;27;20056;-45
2022/10/31 00:21:52;;;;;;;21.17;12.30;;;12.10;99.90;;;;;;5148773;27;20118;-46
2022/10/31 00:24:17;;;;;;;18.25;11.55;;;12.00;99.90;;;;;;5148407;27;20066;-49
2022/10/31 00:26:43;;;;;;;23.50;14.07;;;12.10;99.90;;;;;;5134746;27;20139;-46
2022/10/31 00:29:09;;;;;;;16.08;10.35;;;12.10;99.90;;;;;;5131547;27;20043;-47
2022/10/31 00:31:35;;;;;;;16.65;11.27;;;11.90;99.90;;;;;;5140457;27;20045;-45
2022/10/31 00:34:02;;;;;;;16.77;10.50;;;11.90;99.90;;;;;;5134125;27;20763;-46
2022/10/31 00:36:28;;;;;;;16.73;10.20;;;12.10;99.90;;;;;;5134438;27;20031;-46
2022/10/31 00:38:54;;;;;;;16.13;10.45;;;12.10;99.90;;;;;;5138080;27;20067;-45
2022/10/31 00:41:20;;;;;;;15.05;8.73;;;11.90;99.90;;;;;;5133964;27;20085;-46
2022/10/31 00:43:46;;;;;;;16.63;9.30;;;11.90;99.90;;;;;;5134860;27;20046;-46
2022/10/31 00:46:12;;;;;;;16.13;10.35;;;12.00;99.90;;;;;;5115263;27;20539;-46
2022/10/31 00:48:38;;;;;;;17.17;8.98;;;11.90;99.90;;;;;;5137088;27;20069;-47
2022/10/31 00:51:04;;;;;;;17.45;9.07;;;11.90;99.90;;;;;;5152937;27;20504;-45
2022/10/31 00:53:30;;;;;;;15.93;8.70;;;11.80;99.90;;;;;;5139501;27;20046;-46
2022/10/31 00:55:55;;;;;;;14.52;8.40;;;12.00;99.90;;;;;;5139199;27;20050;-46
2022/10/31 00:58:21;;;;;;;19.02;9.20;;;12.00;99.90;;;;;;5143096;27;20038;-47
2022/10/31 01:00:54;;;;;;;14.30;8.77;;;11.80;99.90;;;;;;5133083;27;20049;-47
2022/10/31 01:03:21;;;;;;;14.85;8.48;;;11.80;99.90;;;;;;5117292;27;20088;-46
2022/10/31 01:05:56;;;;;;;12.02;7.97;;;11.90;99.90;;;;;;5134265;27;20172;-47
2022/10/31 01:08:22;;;;;;;16.02;8.48;;;11.80;99.90;;;;;;5115189;27;20088;-48
2022/10/31 01:11:07;;;;;;;13.35;9.10;;;12.00;99.90;;;;;;5138579;27;20393;-45
2022/10/31 01:13:34;;;;;;;13.80;7.85;;;11.80;99.90;;;;;;5133399;27;20027;-46
2022/10/31 01:16:01;;;;;;;12.80;7.50;;;11.80;99.90;;;;;;5145959;27;20050;-46
2022/10/31 01:18:27;;;;;;;12.32;7.53;;;11.90;99.90;;;;;;5132890;27;20405;-47
2022/10/31 01:21:11;;;;;;;11.32;7.03;;;11.70;99.90;;;;;;5135536;27;20039;-45
2022/10/31 01:23:37;;;;;;;12.63;7.47;;;11.80;99.90;;;;;;5134088;27;20039;-46
2022/10/31 01:26:14;;;;;;;10.57;7.00;;;11.70;99.90;;;;;;5147154;27;20303;-45
2022/10/31 01:28:45;;;;;;;13.95;7.72;;;11.90;99.90;;;;;;5134569;27;20494;-46
2022/10/31 01:31:11;;;;;;;15.45;7.45;;;11.80;99.90;;;;;;5133680;27;20031;-45
2022/10/31 01:33:37;;;;;;;11.35;7.47;;;11.80;99.90;;;;;;5145781;27;20060;-47
2022/10/31 01:36:18;;;;;;;14.93;9.40;;;11.80;99.90;;;;;;5134386;27;20402;-46
2022/10/31 01:38:46;;;;;;;13.05;7.35;;;11.60;99.90;;;;;;5142956;27;20240;-47
2022/10/31 01:41:14;;;;;;;15.20;7.75;;;11.80;99.90;;;;;;5140742;27;20114;-46
2022/10/31 01:43:50;;;;;;;15.70;7.38;;;11.80;99.90;;;;;;5142884;27;20109;-46
2022/10/31 01:46:25;;;;;;;15.85;7.85;;;11.60;99.90;;;;;;5139314;27;20088;-47
2022/10/31 01:48:53;;;;;;;13.82;7.90;;;11.60;99.90;;;;;;5132291;27;20035;-46
2022/10/31 01:51:23;;;;;;;14.45;7.53;;;11.50;99.90;;;;;;5147691;27;20529;-45
2022/10/31 01:53:52;;;;;;;14.50;8.85;;;11.80;99.90;;;;;;5139980;27;20027;-48
2022/10/31 01:56:18;;;;;;;11.80;7.43;;;11.50;99.90;;;;;;5134029;27;20039;-47
2022/10/31 01:58:46;;;;;;;15.73;8.10;;;11.70;99.90;;;;;;5135337;27;20470;-47
2022/10/31 02:01:13;;;;;;;13.85;7.95;;;11.50;99.90;;;;;;5137274;27;20038;-46
2022/10/31 02:03:39;;;;;;;14.63;7.50;;;11.70;99.90;;;;;;5134095;27;20592;-47
2022/10/31 02:06:14;;;;;;;12.93;7.15;;;11.50;99.90;;;;;;5142586;27;20121;-48
2022/10/31 02:08:40;;;;;;;11.65;7.75;;;11.60;99.90;;;;;;5142334;27;20789;-47
2022/10/31 02:11:08;;;;;;;12.82;7.05;;;11.50;99.90;;;;;;5131335;27;20064;-46
2022/10/31 02:13:34;;;;;;;14.02;7.63;;;11.30;99.90;;;;;;5137600;27;20023;-47
2022/10/31 02:15:59;;;;;;;14.65;7.88;;;11.30;99.90;;;;;;5132172;27;20031;-46
2022/10/31 02:18:29;;;;;;;15.23;7.93;;;11.40;99.90;;;;;;5148870;27;20509;-46
2022/10/31 02:21:16;;;;;;;11.98;7.85;;;11.40;99.90;;;;;;5146203;27;20084;-50
2022/10/31 02:23:57;;;;;;;11.85;7.53;;;11.30;99.90;;;;;;5101292;27;20039;-46
2022/10/31 02:26:41;;;;;;;13.60;7.95;;;11.30;99.90;;;;;;5132551;27;20090;-45
2022/10/31 02:29:36;;;;;;;14.45;7.40;;;11.40;99.90;;;;;;5138134;27;20133;-49
2022/10/31 02:32:24;;;;;;;12.10;7.20;;;11.40;99.90;;;;;;5141679;27;20041;-45
2022/10/31 02:34:57;;;;;;;13.65;8.35;;;11.20;99.90;;;;;;5132131;27;20043;-45
2022/10/31 02:37:42;;;;;;;15.05;8.38;;;11.30;99.90;;;;;;5141427;27;20031;-49
2022/10/31 02:40:13;;;;;;;17.75;8.15;;;11.20;99.90;;;;;;5138555;27;20035;-46
2022/10/31 02:42:56;;;;;;;15.85;8.27;;;11.30;99.90;;;;;;5122616;27;20042;-47
2022/10/31 02:45:27;;;;;;;16.48;8.73;;;11.30;99.90;;;;;;5147423;27;20043;-45
2022/10/31 02:47:58;;;;;;;16.15;9.45;;;11.40;99.90;;;;;;5139746;27;20070;-45
2022/10/31 02:50:34;;;;;;;15.88;9.05;;;11.20;99.90;;;;;;5131876;27;20110;-47
2022/10/31 02:53:01;;;;;;;15.88;8.73;;;11.20;99.90;;;;;;5143072;27;20035;-46
2022/10/31 02:55:47;;;;;;;16.38;9.95;;;11.20;99.90;;;;;;5122943;27;20039;-48
2022/10/31 02:58:17;;;;;;;14.25;9.00;;;11.30;99.90;;;;;;5138375;27;20063;-46
2022/10/31 03:00:54;;;;;;;16.33;9.25;;;11.10;99.90;;;;;;5147936;27;20044;-47
2022/10/31 03:03:27;;;;;;;13.50;9.15;;;11.00;99.90;;;;;;5132244;27;20027;-47
2022/10/31 03:06:14;;;;;;;15.05;9.77;;;10.90;99.90;;;;;;5132639;27;20042;-50
2022/10/31 03:08:48;;;;;;;17.90;10.48;;;11.20;99.90;;;;;;5123636;27;20038;-46
2022/10/31 03:11:17;;;;;;;17.23;10.95;;;11.20;99.90;;;;;;5110704;27;20117;-45
2022/10/31 03:13:59;;;;;;;18.35;10.77;;;11.30;99.90;;;;;;5134869;27;20114;-46
2022/10/31 03:16:47;;;;;;;18.55;11.32;;;11.30;99.90;;;;;;5138882;27;20065;-49
2022/10/31 03:19:18;;;;;;;19.30;11.05;;;11.00;99.90;;;;;;5106887;27;20043;-47
2022/10/31 03:21:49;;;;;;;17.50;10.63;;;11.10;99.90;;;;;;5146304;27;20776;-46
2022/10/31 03:24:15;;;;;;;19.58;11.32;;;10.90;99.90;;;;;;5145833;27;20087;-46
2022/10/31 03:26:52;;;;;;;17.77;10.73;;;11.10;99.90;;;;;;5147551;27;20079;-47
2022/10/31 03:29:22;;;;;;;17.13;10.65;;;11.20;99.90;;;;;;5143990;27;20459;-47
2022/10/31 03:31:57;;;;;;;20.92;10.60;;;11.10;99.90;;;;;;5146831;27;20042;-45
2022/10/31 03:34:23;;;;;;;19.08;10.70;;;10.90;99.90;;;;;;5137733;27;20046;-50
2022/10/31 03:36:54;;;;;;;22.80;11.35;;;11.20;99.90;;;;;;5119697;27;20035;-48
2022/10/31 03:39:22;;;;;;;19.95;10.65;;;10.90;99.90;;;;;;5136356;27;20038;-46
2022/10/31 03:41:58;;;;;;;19.42;11.00;;;10.80;99.90;;;;;;5151114;27;20488;-45
2022/10/31 03:44:26;;;;;;;23.95;11.13;;;11.10;99.90;;;;;;5145958;27;20031;-47
2022/10/31 03:46:53;;;;;;;16.92;12.73;;;11.10;99.90;;;;;;5138052;27;20035;-46
2022/10/31 03:49:19;;;;;;;16.67;10.50;;;10.80;99.90;;;;;;5148329;27;20477;-48
2022/10/31 03:51:54;;;;;;;16.08;10.90;;;10.70;99.90;;;;;;5149512;27;20387;-46
2022/10/31 03:54:36;;;;;;;19.05;10.75;;;10.80;99.90;;;;;;5134864;27;20045;-46
2022/10/31 03:57:33;;;;;;;18.83;10.00;;;10.90;99.90;;;;;;5135624;27;20432;-46
2022/10/31 04:00:04;;;;;;;15.82;9.27;;;10.90;99.90;;;;;;5126702;27;20520;-47
2022/10/31 04:02:32;;;;;;;18.63;10.80;;;10.70;99.90;;;;;;5143138;27;20039;-47
2022/10/31 04:04:59;;;;;;;16.80;9.32;;;10.70;99.90;;;;;;5143187;27;20121;-46
2022/10/31 04:07:30;;;;;;;18.00;10.07;;;10.60;99.90;;;;;;5135876;27;20039;-46
2022/10/31 04:09:57;;;;;;;17.65;10.18;;;10.70;99.90;;;;;;5150344;27;20080;-45
2022/10/31 04:12:25;;;;;;;15.10;10.57;;;10.60;99.90;;;;;;5135735;27;20144;-48
2022/10/31 04:14:52;;;;;;;16.25;10.20;;;10.60;99.90;;;;;;5144692;27;20114;-51
2022/10/31 04:17:22;;;;;;;19.17;9.57;;;10.60;99.90;;;;;;5150639;27;20052;-47
2022/10/31 04:19:47;;;;;;;15.70;9.73;;;10.60;99.90;;;;;;5116551;27;20367;-46
2022/10/31 04:22:13;;;;;;;18.55;10.00;;;10.40;99.90;;;;;;5133400;27;20127;-46
2022/10/31 04:24:40;;;;;;;14.95;9.68;;;10.30;99.90;;;;;;5141254;27;20549;-46
2022/10/31 04:27:06;;;;;;;17.65;10.50;;;10.30;99.90;;;;;;5143869;27;20154;-46
2022/10/31 04:29:32;;;;;;;19.67;11.52;;;10.50;99.90;;;;;;5141277;27;20113;-50
2022/10/31 04:31:58;;;;;;;21.73;11.95;;;10.30;99.90;;;;;;5136496;27;20065;-47
2022/10/31 04:34:23;;;;;;;19.95;12.30;;;10.60;99.90;;;;;;5137451;27;20038;-49
2022/10/31 04:36:49;;;;;;;19.05;11.38;;;10.30;99.90;;;;;;5147362;27;20039;-46
2022/10/31 04:39:15;;;;;;;19.90;11.00;;;10.70;99.90;;;;;;5150261;27;20042;-46
2022/10/31 04:41:40;;;;;;;18.73;11.48;;;10.60;99.90;;;;;;5146105;27;20043;-48
2022/10/31 04:44:06;;;;;;;16.60;9.80;;;10.40;99.90;;;;;;5143736;27;20035;-46
2022/10/31 04:46:32;;;;;;;18.17;10.13;;;10.20;99.90;;;;;;5143388;27;20374;-46
2022/10/31 04:48:57;;;;;;;16.65;9.98;;;10.10;99.90;;;;;;5140664;27;20070;-46
2022/10/31 04:51:23;;;;;;;15.60;9.77;;;10.30;99.90;;;;;;5150907;27;20037;-49
2022/10/31 04:53:49;;;;;;;15.55;10.43;;;10.20;99.90;;;;;;5138603;27;20484;-45
2022/10/31 04:56:14;;;;;;;19.02;11.20;;;10.10;99.90;;;;;;5138424;27;20034;-48
2022/10/31 04:58:40;;;;;;;22.52;12.25;;;10.20;99.90;;;;;;5141826;27;20478;-47
2022/10/31 05:01:06;;;;;;;22.92;13.27;;;10.10;99.90;;;;;;5135990;27;20035;-46
2022/10/31 05:03:31;;;;;;;20.58;12.38;;;10.40;99.90;;;;;;5138797;27;20027;-47
2022/10/31 05:05:57;;;;;;;22.25;14.32;;;10.20;99.90;;;;;;5141883;27;20121;-45
2022/10/31 05:08:22;;;;;;;21.52;13.98;;;10.10;99.90;;;;;;5139389;27;20035;-48
2022/10/31 05:10:48;;;;;;;21.65;13.95;;;10.30;99.90;;;;;;5133108;27;20041;-45
2022/10/31 05:13:15;;;;;;;23.05;15.10;;;10.40;99.90;;;;;;5120654;27;20035;-49
2022/10/31 05:15:41;;;;;;;20.38;13.85;;;10.00;99.90;;;;;;5144861;27;20035;-45
2022/10/31 05:18:07;;;;;;;22.75;13.32;;;10.30;99.90;;;;;;5121244;27;20054;-45
2022/10/31 05:20:33;;;;;;;21.48;12.55;;;10.30;99.90;;;;;;5146193;27;20438;-47
2022/10/31 05:22:59;;;;;;;18.17;12.20;;;10.10;99.90;;;;;;5143000;27;20036;-46
2022/10/31 05:25:27;;;;;;;21.05;12.50;;;10.00;99.90;;;;;;5138519;27;20035;-48
2022/10/31 05:27:54;;;;;;;19.70;12.18;;;10.10;99.90;;;;;;5142532;27;20051;-49
2022/10/31 05:30:23;;;;;;;18.88;12.70;;;9.80;99.90;;;;;;5138620;27;21665;-46
2022/10/31 05:32:50;;;;;;;20.40;12.70;;;9.90;99.90;;;;;;5143945;27;20092;-46
2022/10/31 05:35:18;;;;;;;19.90;11.50;;;10.00;99.90;;;;;;5114772;27;20043;-47
2022/10/31 05:37:44;;;;;;;18.88;11.80;;;9.70;99.90;;;;;;5133178;27;20050;-46
2022/10/31 05:40:12;;;;;;;22.15;14.85;;;10.00;99.90;;;;;;5139480;27;20034;-49
2022/10/31 05:42:39;;;;;;;19.23;12.10;;;9.70;99.90;;;;;;5143453;27;20065;-46
2022/10/31 05:45:10;;;;;;;17.30;12.63;;;9.60;99.90;;;;;;5142318;27;20062;-45
2022/10/31 05:47:36;;;;;;;19.27;11.88;;;9.60;99.90;;;;;;5143789;27;20043;-47
2022/10/31 05:50:03;;;;;;;18.95;12.60;;;9.80;99.90;;;;;;5149393;27;20489;-49
2022/10/31 05:52:29;;;;;;;18.05;11.70;;;9.60;99.90;;;;;;5136835;27;20063;-49
2022/10/31 05:54:54;;;;;;;19.83;12.75;;;9.50;99.90;;;;;;5134172;27;20140;-45
2022/10/31 05:57:20;;;;;;;21.85;13.90;;;9.60;99.90;;;;;;5137969;27;20592;-45
2022/10/31 05:59:45;;;;;;;21.02;13.45;;;9.60;99.90;;;;;;5138266;27;20039;-45
2022/10/31 06:02:11;;;;;;;20.38;13.65;;;9.80;99.90;;;;;;5132266;27;20403;-46
2022/10/31 06:04:37;;;;;;;23.00;14.80;;;9.60;99.90;;;;;;5144878;27;20492;-45
2022/10/31 06:07:02;;;;;;;19.02;13.65;;;9.60;99.90;;;;;;5144589;27;20027;-46
2022/10/31 06:09:28;;;;;;;24.45;15.57;;;9.70;99.90;;;;;;5144895;27;20027;-46
2022/10/31 06:11:54;;;;;;;25.23;16.58;;;9.70;99.90;;;;;;5137796;27;20077;-47
2022/10/31 06:14:19;;;;;;;23.23;16.17;;;10.00;99.90;;;;;;5142116;27;20072;-46
2022/10/31 06:16:45;;;;;;;24.23;16.17;;;9.60;99.90;;;;;;5141094;27;20381;-48
2022/10/31 06:19:11;;;;;;;20.65;14.50;;;9.60;99.90;;;;;;5147144;27;20040;-48
2022/10/31 06:21:36;;;;;;;25.63;17.20;;;9.70;99.90;;;;;;5148342;27;20469;-45
2022/10/31 06:24:02;;;;;;;24.48;15.32;;;9.90;99.90;;;;;;5134498;27;20076;-50
2022/10/31 06:26:28;;;;;;;26.35;15.80;;;9.80;99.90;;;;;;5144230;27;20496;-47
2022/10/31 06:28:54;;;;;;;27.85;17.17;;;9.60;99.90;;;;;;5146346;27;20466;-47
2022/10/31 06:31:19;;;;;;;24.20;16.45;;;9.70;99.90;;;;;;5122987;27;20492;-49
2022/10/31 06:33:45;;;;;;;24.25;15.27;;;9.70;99.90;;;;;;5136723;27;20435;-48
2022/10/31 06:36:10;;;;;;;26.33;14.80;;;9.60;99.90;;;;;;5142781;27;20058;-46
2022/10/31 06:38:36;;;;;;;22.10;15.55;;;9.70;99.90;;;;;;5136064;27;20396;-45
2022/10/31 06:41:04;;;;;;;22.27;13.68;;;9.70;99.90;;;;;;5148968;27;20536;-46
2022/10/31 06:43:30;;;;;;;21.02;15.02;;;9.80;99.90;;;;;;5142453;27;20031;-46
2022/10/31 06:45:56;;;;;;;22.10;14.93;;;9.60;99.90;;;;;;5143418;27;20042;-46
2022/10/31 06:48:21;;;;;;;22.70;15.40;;;9.80;99.90;;;;;;5145511;27;20038;-44
2022/10/31 06:50:47;;;;;;;21.50;15.00;;;9.50;99.90;;;;;;5142863;27;20035;-47
2022/10/31 06:53:14;;;;;;;23.92;14.57;;;9.80;99.90;;;;;;5121093;27;20481;-45
2022/10/31 06:55:39;;;;;;;22.33;14.52;;;9.40;99.90;;;;;;5125052;27;20043;-46
2022/10/31 06:58:05;;;;;;;22.25;14.93;;;9.60;99.90;;;;;;5124014;27;20044;-49
2022/10/31 07:00:31;;;;;;;25.33;15.30;;;9.50;99.90;;;;;;5122373;27;20038;-45
2022/10/31 07:02:59;;;;;;;23.58;15.55;;;9.70;99.90;;;;;;5102920;27;20039;-46
2022/10/31 07:05:26;;;;;;;27.52;15.10;;;9.50;99.90;;;;;;5121728;27;20043;-47
2022/10/31 07:08:03;;;;;;;22.92;15.00;;;9.80;99.90;;;;;;5124287;27;20043;-45
2022/10/31 07:10:30;;;;;;;26.45;16.70;;;9.50;99.90;;;;;;5122689;27;20093;-46
2022/10/31 07:12:58;;;;;;;24.73;16.55;;;9.80;99.90;;;;;;5123813;27;20035;-45
2022/10/31 07:15:24;;;;;;;26.00;16.65;;;9.50;99.90;;;;;;5123844;27;20474;-48
2022/10/31 07:17:50;;;;;;;32.05;17.95;;;9.80;99.90;;;;;;5123635;27;20027;-45
2022/10/31 07:20:16;;;;;;;26.88;17.63;;;9.60;99.90;;;;;;5123426;27;20084;-47
2022/10/31 07:22:42;;;;;;;25.45;17.15;;;9.90;99.90;;;;;;5119752;27;20047;-46
2022/10/31 07:25:08;;;;;;;23.23;16.75;;;9.70;99.90;;;;;;5121506;27;20131;-46
2022/10/31 07:27:41;;;;;;;24.92;16.88;;;9.90;99.90;;;;;;5120976;27;20067;-47
2022/10/31 07:30:10;;;;;;;26.55;16.95;;;9.70;99.90;;;;;;5121686;27;20114;-46
2022/10/31 07:32:46;;;;;;;27.27;16.27;;;9.90;99.90;;;;;;5121089;27;20035;-46
2022/10/31 07:35:14;;;;;;;25.92;16.70;;;9.50;99.90;;;;;;5120181;27;20027;-46
2022/10/31 07:37:40;;;;;;;27.85;16.88;;;9.90;99.90;;;;;;5127267;27;20108;-47
2022/10/31 07:40:07;;;;;;;24.08;16.35;;;9.70;99.90;;;;;;5121418;27;20047;-47
2022/10/31 07:42:41;;;;;;;29.85;17.30;;;9.60;99.90;;;;;;5122593;27;20035;-45
2022/10/31 07:45:13;;;;;;;27.80;16.45;;;10.00;99.90;;;;;;5122133;27;20042;-46
2022/10/31 07:47:39;;;;;;;26.20;16.50;;;9.80;99.90;;;;;;5117823;27;20043;-46
2022/10/31 07:50:05;;;;;;;27.00;17.92;;;10.00;99.90;;;;;;5124435;27;20047;-45
2022/10/31 07:52:31;;;;;;;29.80;18.55;;;10.10;99.90;;;;;;5121326;27;20039;-45
2022/10/31 07:54:57;;;;;;;29.30;19.63;;;9.70;99.90;;;;;;5122503;27;20035;-45
2022/10/31 07:57:22;;;;;;;36.20;21.98;;;10.20;99.90;;;;;;5125734;27;20044;-46
2022/10/31 07:59:48;;;;;;;33.15;21.55;;;10.20;99.90;;;;;;5125232;27;20411;-46
2022/10/31 08:02:14;;;;;;;38.35;23.80;;;10.30;99.90;;;;;;5125801;27;20042;-45
2022/10/31 08:04:39;;;;;;;36.08;23.98;;;10.20;99.90;;;;;;5124545;27;20039;-46
2022/10/31 08:07:05;;;;;;;47.40;27.10;;;10.50;99.90;;;;;;5122283;27;20074;-47
2022/10/31 08:09:31;;;;;;;41.83;26.70;;;10.20;99.90;;;;;;5122684;27;20031;-47
2022/10/31 08:11:56;;;;;;;47.97;27.70;;;10.20;99.90;;;;;;5104654;27;20035;-45
2022/10/31 08:14:22;;;;;;;42.03;26.95;;;10.30;99.90;;;;;;5124298;27;20031;-45
2022/10/31 08:16:48;;;;;;;42.10;27.30;;;10.30;99.90;;;;;;5124175;27;20111;-46
2022/10/31 08:19:13;;;;;;;43.33;27.38;;;10.30;99.90;;;;;;5124938;27;20038;-49
2022/10/31 08:21:39;;;;;;;44.78;28.02;;;10.40;99.90;;;;;;5123580;27;20046;-46
2022/10/31 08:24:05;;;;;;;46.35;30.80;;;10.50;99.90;;;;;;5121300;27;20039;-47
2022/10/31 08:26:31;;;;;;;54.38;31.58;;;10.70;99.90;;;;;;5101261;27;20409;-46
2022/10/31 08:28:57;;;;;;;48.20;30.67;;;10.70;99.90;;;;;;5124840;27;20035;-49
2022/10/31 08:31:22;;;;;;;53.53;32.45;;;11.20;99.90;;;;;;5124678;27;20087;-46
2022/10/31 08:33:48;;;;;;;53.85;33.78;;;11.20;99.90;;;;;;5124056;27;20031;-45
2022/10/31 08:36:14;;;;;;;53.47;33.28;;;10.80;99.90;;;;;;5123920;27;20039;-45
2022/10/31 08:38:40;;;;;;;53.85;33.33;;;11.20;99.90;;;;;;5105135;27;20046;-46
2022/10/31 08:41:05;;;;;;;55.40;34.80;;;11.30;99.90;;;;;;5123723;27;20043;-49
2022/10/31 08:43:31;;;;;;;53.97;33.22;;;11.30;99.90;;;;;;5124918;27;20138;-49
2022/10/31 08:45:56;;;;;;;48.58;31.92;;;10.80;99.90;;;;;;5125836;27;20042;-50
2022/10/31 08:48:22;;;;;;;54.47;31.27;;;11.20;99.90;;;;;;5088095;27;20140;-45
2022/10/31 08:50:48;;;;;;;49.75;30.83;;;11.20;99.90;;;;;;5123878;27;20046;-46
2022/10/31 08:53:15;;;;;;;52.83;31.70;;;11.10;99.90;;;;;;5126211;27;20046;-45
2022/10/31 08:55:42;;;;;;;53.33;32.70;;;11.10;99.90;;;;;;5107492;27;20035;-47
2022/10/31 08:58:16;;;;;;;50.08;31.20;;;11.10;99.90;;;;;;5123616;27;20035;-47
2022/10/31 09:00:42;;;;;;;55.75;31.08;;;11.70;99.90;;;;;;5123894;27;20039;-47
2022/10/31 09:03:16;;;;;;;52.85;32.15;;;11.80;99.90;;;;;;5124370;27;20035;-47
2022/10/31 09:05:42;;;;;;;;;;;11.80;99.90;;;;;;5123651;27;20066;-46
2022/10/31 09:08:08;;;;;;;49.35;29.60;;;11.60;99.90;;;;;;5123417;27;19947;-45
2022/10/31 09:10:36;;;;;;;47.13;30.00;;;12.00;99.90;;;;;;5122180;27;20493;-50
2022/10/31 09:13:16;;;;;;;45.88;29.70;;;11.60;99.90;;;;;;5122682;27;20558;-46
2022/10/31 09:15:44;;;;;;;49.53;29.85;;;12.10;99.90;;;;;;5117536;27;20038;-48
2022/10/31 09:18:11;;;;;;;49.53;31.23;;;11.60;99.90;;;;;;5120718;27;20047;-47
2022/10/31 09:20:38;;;;;;;51.08;32.08;;;11.90;99.90;;;;;;5121684;27;20073;-47
2022/10/31 09:23:05;;;;;;;52.85;32.33;;;11.90;99.90;;;;;;5103716;27;20066;-49
2022/10/31 09:25:33;;;;;;;55.65;39.15;;;12.00;99.90;;;;;;5123174;27;20041;-46
2022/10/31 09:28:00;;;;;;;56.60;31.55;;;11.90;99.90;;;;;;5121344;27;20039;-46
2022/10/31 09:30:27;;;;;;;53.42;32.53;;;12.00;99.90;;;;;;5124955;27;20121;-45
2022/10/31 09:33:01;;;;;;;57.22;32.25;;;12.20;99.90;;;;;;5120952;27;20063;-46
2022/10/31 09:35:27;;;;;;;51.97;37.72;;;12.60;99.90;;;;;;5121018;27;20023;-46
2022/10/31 09:37:55;;;;;;;51.13;31.63;;;12.40;99.90;;;;;;5120288;27;20031;-48
2022/10/31 09:40:20;;;;;;;49.85;30.92;;;12.60;99.90;;;;;;5098551;27;20050;-45
2022/10/31 09:42:52;;;;;;;48.97;34.97;;;12.40;99.90;;;;;;5118832;27;20031;-48
2022/10/31 09:45:31;;;;;;;46.28;29.60;;;12.80;99.90;;;;;;5118568;27;20031;-49
2022/10/31 09:48:30;;;;;;;51.85;34.13;;;12.80;99.90;;;;;;5122435;27;20050;-47
2022/10/31 09:51:17;;;;;;;42.08;25.85;;;12.80;99.90;;;;;;5121226;27;20043;-48
2022/10/31 09:54:21;;;;;;;44.03;26.77;;;12.60;99.90;;;;;;5121753;27;20060;-47
2022/10/31 09:56:47;;;;;;;43.42;27.23;;;12.50;99.90;;;;;;5057686;28;20127;-46
2022/10/31 09:59:34;;;;;;;48.30;28.42;;;12.40;99.90;;;;;;5109572;27;20149;-49
2022/10/31 10:02:10;;;;;;;39.03;26.98;;;12.70;99.90;;;;;;5118913;27;20043;-46
2022/10/31 10:05:04;;;;;;;42.25;31.50;;;12.50;99.90;;;;;;5121345;27;20366;-46
2022/10/31 10:07:35;;;;;;;41.40;26.13;;;12.60;99.90;;;;;;5119994;27;21760;-45
2022/10/31 10:10:10;;;;;;;41.05;31.05;;;12.70;99.90;;;;;;5119207;27;20031;-48
2022/10/31 10:13:12;;;;;;;39.88;29.77;;;13.10;99.90;;;;;;5119632;27;20494;-46
2022/10/31 10:15:55;;;;;;;40.17;29.05;;;13.30;99.90;;;;;;5120801;27;20039;-46
2022/10/31 10:19:00;;;;;;;37.05;24.95;;;13.50;99.90;;;;;;5118410;27;20038;-45
2022/10/31 10:21:44;;;;;;;36.42;26.50;;;13.60;99.90;;;;;;5122030;27;20035;-47
2022/10/31 10:24:33;;;;;;;32.67;25.05;;;13.80;99.90;;;;;;5120064;27;20035;-46
2022/10/31 10:27:16;;;;;;;36.13;26.23;;;13.70;99.90;;;;;;5121016;27;20396;-46
2022/10/31 10:29:45;;;;;;;35.80;25.02;;;14.10;99.90;;;;;;5119525;27;20053;-47
2022/10/31 10:32:21;;;;;;;30.45;23.77;;;14.10;99.90;;;;;;5123907;27;20155;-46
2022/10/31 10:34:57;;;;;;;30.73;22.77;;;14.20;99.90;;;;;;5121381;27;20450;-46
2022/10/31 10:37:35;;;;;;;33.33;24.02;;;14.50;99.90;;;;;;5120266;27;20372;-45
2022/10/31 10:40:23;;;;;;;27.13;20.10;;;14.60;99.90;;;;;;5123061;27;20457;-48
2022/10/31 10:43:22;;;;;;;27.70;20.38;;;14.70;99.90;;;;;;5123421;27;20506;-47
2022/10/31 10:48:49;;;;;;;21.77;15.77;;;14.70;99.90;;;;;;5123029;27;20055;-45
2022/10/31 10:51:40;;;;;;;21.92;16.02;;;14.70;99.90;;;;;;5123756;27;20416;-47
2022/10/31 10:54:20;;;;;;;22.73;16.02;;;14.70;99.90;;;;;;5122122;27;20486;-46
2022/10/31 10:57:17;;;;;;;26.40;16.40;;;14.80;99.90;;;;;;5123512;27;20039;-46
2022/10/31 10:59:43;;;;;;;20.55;15.63;;;14.80;99.90;;;;;;5105022;27;20039;-47
2022/10/31 11:02:32;;;;;;;19.38;14.90;;;14.70;99.90;;;;;;5104258;27;20047;-50
2022/10/31 11:05:00;;;;;;;20.00;14.32;;;14.90;99.90;;;;;;5123437;27;20043;-48
2022/10/31 11:07:36;;;;;;;20.63;14.15;;;14.70;99.90;;;;;;5122813;27;20043;-45
2022/10/31 11:10:12;;;;;;;17.27;12.52;;;14.90;99.90;;;;;;5121468;27;20552;-47
2022/10/31 11:12:38;;;;;;;18.17;11.45;;;14.90;99.90;;;;;;5104802;27;20082;-46
2022/10/31 11:15:22;;;;;;;17.20;11.02;;;14.90;99.90;;;;;;5104047;27;20031;-47
2022/10/31 11:17:54;;;;;;;14.52;10.52;;;14.80;99.90;;;;;;5118820;27;20462;-46
2022/10/31 11:20:19;;;;;;;18.50;11.95;;;14.80;99.90;;;;;;5120583;27;20035;-46
2022/10/31 11:22:47;;;;;;;16.25;11.05;;;14.90;99.90;;;;;;5119638;27;20092;-47
2022/10/31 11:25:26;;;;;;;16.23;11.32;;;14.80;99.90;;;;;;5120202;27;20100;-46
2022/10/31 11:28:03;;;;;;;16.55;11.90;;;14.80;99.90;;;;;;5117450;27;20082;-45
2022/10/31 11:30:30;;;;;;;20.77;14.63;;;14.90;99.90;;;;;;5119081;27;20446;-46
2022/10/31 11:32:56;;;;;;;24.60;16.60;;;15.00;99.90;;;;;;5108555;27;20186;-46
2022/10/31 11:35:24;;;;;;;20.63;16.02;;;14.90;99.90;;;;;;5128783;27;20420;-47
2022/10/31 11:37:53;;;;;;;21.48;16.02;;;15.00;99.90;;;;;;5125687;27;20039;-46
2022/10/31 11:40:24;;;;;;;24.10;16.38;;;15.00;99.90;;;;;;5131386;27;20505;-46
2022/10/31 11:42:52;;;;;;;22.63;16.23;;;15.20;99.90;;;;;;5127058;27;20046;-49
2022/10/31 11:45:24;;;;;;;21.77;15.63;;;15.10;99.90;;;;;;5128381;27;21271;-45
2022/10/31 11:47:52;;;;;;;20.90;15.07;;;15.10;99.90;;;;;;5126249;27;20035;-46
2022/10/31 11:50:25;;;;;;;23.75;15.38;;;15.20;99.90;;;;;;5124790;27;20036;-47
2022/10/31 11:52:53;;;;;;;18.95;13.98;;;15.30;99.90;;;;;;5122114;27;20104;-50
2022/10/31 11:55:37;;;;;;;20.95;14.60;;;15.30;99.90;;;;;;5126454;27;20405;-45
2022/10/31 11:58:03;;;;;;;21.30;14.65;;;15.30;99.90;;;;;;5123578;27;20051;-47
2022/10/31 12:00:32;;;;;;;21.92;15.38;;;15.30;99.90;;;;;;5127902;27;20103;-47
2022/10/31 12:03:22;;;;;;;20.73;14.93;;;15.40;99.90;;;;;;5121298;27;20043;-47
2022/10/31 12:06:07;;;;;;;24.10;15.82;;;15.40;99.90;;;;;;5126773;27;20036;-46
2022/10/31 12:08:35;;;;;;;22.40;16.25;;;15.40;99.90;;;;;;5105957;27;20066;-47
2022/10/31 12:11:13;;;;;;;21.58;14.55;;;15.50;99.90;;;;;;5125189;27;20080;-46
2022/10/31 12:14:17;;;;;;;20.30;14.02;;;15.50;99.90;;;;;;5110092;27;20071;-47
2022/10/31 12:17:08;;;;;;;20.92;14.77;;;15.60;99.90;;;;;;5104950;27;20124;-47
2022/10/31 12:19:49;;;;;;;21.95;14.23;;;15.60;99.90;;;;;;5136009;27;20478;-46
2022/10/31 12:22:33;;;;;;;18.85;15.35;;;15.60;99.90;;;;;;5134167;27;20034;-50
2022/10/31 12:25:34;;;;;;;21.20;14.25;;;15.50;99.90;;;;;;5133684;27;20043;-48
2022/10/31 12:28:24;;;;;;;21.80;14.38;;;15.50;99.90;;;;;;5132045;27;20051;-48
2022/10/31 12:31:01;;;;;;;21.98;14.73;;;15.60;99.90;;;;;;5129331;27;20043;-45
2022/10/31 12:33:37;;;;;;;20.55;14.05;;;15.60;99.90;;;;;;5132986;27;20506;-46
2022/10/31 12:36:03;;;;;;;23.38;13.38;;;15.70;99.90;;;;;;5132656;27;20039;-47
2022/10/31 12:38:33;;;;;;;21.08;13.40;;;15.70;99.90;;;;;;5131166;27;20516;-47
2022/10/31 12:41:33;;;;;;;18.05;13.20;;;15.80;99.90;;;;;;5131664;27;20044;-47
2022/10/31 12:44:14;;;;;;;18.15;12.52;;;15.80;99.90;;;;;;5122178;27;20079;-49
2022/10/31 12:47:16;;;;;;;19.08;13.32;;;16.00;99.90;;;;;;5133677;27;20043;-49
2022/10/31 12:49:46;;;;;;;17.60;13.52;;;16.10;99.90;;;;;;5126590;27;20041;-45
2022/10/31 12:52:35;;;;;;;20.08;13.10;;;16.30;99.90;;;;;;5129400;27;20039;-47
2022/10/31 12:55:34;;;;;;;20.30;12.70;;;16.50;99.90;;;;;;5125741;27;20040;-48